createdAt,value
2018-08-23T00:01:37.320Z,18.50
2018-08-23T00:04:10.999Z,18.60
2018-08-23T00:06:46.965Z,18.60
2018-08-23T00:09:16.495Z,18.60
2018-08-23T00:11:47.354Z,18.70
2018-08-23T00:14:17.502Z,18.70
2018-08-23T00:16:48.360Z,18.70
2018-08-23T00:19:18.011Z,18.70
2018-08-23T00:21:48.560Z,18.80
2018-08-23T00:24:19.681Z,18.80
2018-08-23T00:26:52.998Z,18.80
2018-08-23T00:29:38.567Z,18.80
2018-08-23T00:32:09.176Z,18.80
2018-08-23T00:34:40.344Z,18.80
2018-08-23T00:37:10.333Z,18.80
2018-08-23T00:39:39.626Z,18.80
2018-08-23T00:42:11.376Z,18.80
2018-08-23T00:44:58.922Z,18.80
2018-08-23T00:47:29.981Z,18.70
2018-08-23T00:49:59.894Z,18.70
2018-08-23T00:52:48.611Z,18.70
2018-08-23T00:55:29.201Z,18.60
2018-08-23T00:57:58.467Z,18.60
2018-08-23T01:00:28.802Z,18.60
2018-08-23T01:03:01.808Z,18.50
2018-08-23T01:05:36.038Z,18.50
2018-08-23T01:08:06.319Z,18.40
2018-08-23T01:10:37.503Z,18.40
2018-08-23T01:13:07.044Z,18.30
2018-08-23T01:15:36.311Z,18.20
2018-08-23T01:18:14.391Z,18.20
2018-08-23T01:20:44.327Z,18.10
2018-08-23T01:23:14.309Z,18.10
2018-08-23T01:25:44.744Z,18.10
2018-08-23T01:28:13.971Z,18.10
2018-08-23T01:30:43.763Z,18.00
2018-08-23T01:33:14.160Z,18.00
2018-08-23T01:35:44.546Z,18.00
2018-08-23T01:38:14.406Z,18.00
2018-08-23T01:40:43.767Z,17.90
2018-08-23T01:43:13.147Z,17.90
2018-08-23T01:45:42.428Z,17.90
2018-08-23T01:48:12.078Z,17.90
2018-08-23T01:50:41.371Z,17.90
2018-08-23T01:53:10.588Z,17.90
2018-08-23T01:55:39.770Z,17.90
2018-08-23T01:58:09.011Z,17.90
2018-08-23T02:00:38.238Z,17.80
2018-08-23T02:03:07.482Z,17.80
2018-08-23T02:05:38.795Z,17.80
2018-08-23T02:08:08.020Z,17.80
2018-08-23T02:10:37.258Z,17.80
2018-08-23T02:13:14.411Z,17.80
2018-08-23T02:15:48.771Z,17.80
2018-08-23T02:18:18.002Z,17.90
2018-08-23T02:20:47.393Z,17.80
2018-08-23T02:23:16.631Z,17.80
2018-08-23T02:25:45.976Z,17.80
2018-08-23T02:28:15.151Z,17.70
2018-08-23T02:30:50.558Z,17.70
2018-08-23T02:33:19.962Z,17.70
2018-08-23T02:36:05.313Z,17.70
2018-08-23T02:38:36.367Z,17.60
2018-08-23T02:41:06.924Z,17.60
2018-08-23T02:43:36.292Z,17.60
2018-08-23T02:46:05.595Z,17.60
2018-08-23T02:48:34.959Z,17.50
2018-08-23T02:51:04.192Z,17.50
2018-08-23T02:53:38.492Z,17.50
2018-08-23T02:56:11.433Z,17.50
2018-08-23T02:58:50.930Z,17.50
2018-08-23T03:01:20.371Z,17.60
2018-08-23T03:04:01.071Z,17.60
2018-08-23T03:06:35.603Z,17.60
2018-08-23T03:09:06.342Z,17.60
2018-08-23T03:11:38.587Z,17.60
2018-08-23T03:14:07.857Z,17.60
2018-08-23T03:16:49.024Z,17.60
2018-08-23T03:19:18.240Z,17.60
2018-08-23T03:21:48.835Z,17.70
2018-08-23T03:24:21.014Z,17.70
2018-08-23T03:26:50.229Z,17.70
2018-08-23T03:29:19.498Z,17.70
2018-08-23T03:31:48.836Z,17.70
2018-08-23T03:34:18.155Z,17.70
2018-08-23T03:36:47.367Z,17.70
2018-08-23T03:39:16.632Z,17.70
2018-08-23T03:41:46.991Z,17.70
2018-08-23T03:44:26.124Z,17.70
2018-08-23T03:46:56.158Z,17.70
2018-08-23T03:49:33.416Z,17.70
2018-08-23T03:52:02.747Z,17.60
2018-08-23T03:54:32.215Z,17.60
2018-08-23T03:57:13.531Z,17.60
2018-08-23T03:59:45.686Z,17.60
2018-08-23T04:02:16.103Z,17.60
2018-08-23T04:04:50.019Z,17.50
2018-08-23T04:07:19.723Z,17.60
2018-08-23T04:09:48.904Z,17.50
2018-08-23T04:12:18.126Z,17.50
2018-08-23T04:14:47.694Z,17.50
2018-08-23T04:17:17.058Z,17.50
2018-08-23T04:19:48.815Z,17.50
2018-08-23T04:22:18.469Z,17.50
2018-08-23T04:24:54.595Z,17.50
2018-08-23T04:27:23.929Z,17.50
2018-08-23T04:29:53.131Z,17.40
2018-08-23T04:32:28.911Z,17.50
2018-08-23T04:35:00.691Z,17.40
2018-08-23T04:37:30.875Z,17.40
2018-08-23T04:40:05.368Z,17.40
2018-08-23T04:42:35.231Z,17.50
2018-08-23T04:45:11.768Z,17.50
2018-08-23T04:47:48.640Z,17.50
2018-08-23T04:50:19.080Z,17.60
2018-08-23T04:52:48.338Z,17.60
2018-08-23T04:55:17.637Z,17.70
2018-08-23T04:57:46.776Z,17.80
2018-08-23T05:00:16.015Z,17.90
2018-08-23T05:02:45.191Z,18.00
2018-08-23T05:05:14.409Z,18.30
2018-08-23T05:07:43.647Z,18.50
2018-08-23T05:10:13.142Z,18.70
2018-08-23T05:12:42.402Z,18.90
2018-08-23T05:15:11.641Z,19.00
2018-08-23T05:17:40.841Z,19.10
2018-08-23T05:20:10.495Z,19.30
2018-08-23T05:22:41.259Z,19.50
2018-08-23T05:25:15.379Z,19.80
2018-08-23T05:28:00.659Z,20.00
2018-08-23T05:30:30.626Z,20.20
2018-08-23T05:33:04.891Z,20.30
2018-08-23T05:35:34.287Z,20.50
2018-08-23T05:38:03.567Z,20.70
2018-08-23T05:40:37.124Z,20.90
2018-08-23T05:43:06.485Z,21.10
2018-08-23T05:45:40.862Z,21.40
2018-08-23T05:48:23.804Z,21.60
2018-08-23T05:50:53.079Z,21.90
2018-08-23T05:53:22.297Z,22.10
2018-08-23T05:55:53.890Z,22.30
2018-08-23T05:58:27.215Z,22.50
2018-08-23T06:00:56.497Z,22.70
2018-08-23T06:03:25.732Z,22.80
2018-08-23T06:05:55.896Z,22.80
2018-08-23T06:08:25.347Z,23.00
2018-08-23T06:10:59.636Z,23.10
2018-08-23T06:13:28.804Z,23.30
2018-08-23T06:15:58.911Z,23.30
2018-08-23T06:18:28.529Z,23.50
2018-08-23T06:20:57.871Z,23.70
2018-08-23T06:23:33.369Z,23.80
2018-08-23T06:26:02.761Z,23.90
2018-08-23T06:28:32.024Z,24.00
2018-08-23T06:31:01.998Z,24.10
2018-08-23T06:33:40.830Z,24.30
2018-08-23T06:36:11.142Z,24.40
2018-08-23T06:38:41.208Z,24.40
2018-08-23T06:41:10.411Z,24.50
2018-08-23T06:43:39.631Z,24.60
2018-08-23T06:46:08.892Z,24.60
2018-08-23T06:48:38.132Z,24.80
2018-08-23T06:51:11.047Z,24.80
2018-08-23T06:53:47.966Z,24.90
2018-08-23T06:56:18.900Z,25.10
2018-08-23T06:58:48.657Z,25.30
2018-08-23T07:01:34.562Z,25.40
2018-08-23T07:04:08.971Z,25.60
2018-08-23T07:06:38.319Z,25.70
2018-08-23T07:09:19.721Z,25.70
2018-08-23T07:11:49.146Z,25.80
2018-08-23T07:14:20.473Z,25.90
2018-08-23T07:16:50.864Z,26.10
2018-08-23T07:19:31.173Z,26.00
2018-08-23T07:22:02.698Z,26.20
2018-08-23T07:24:43.892Z,26.30
2018-08-23T07:27:14.515Z,26.30
2018-08-23T07:29:47.857Z,26.60
2018-08-23T07:32:18.543Z,26.70
2018-08-23T07:35:14.550Z,26.80
2018-08-23T07:37:46.192Z,26.90
2018-08-23T07:40:18.444Z,26.90
2018-08-23T07:42:49.115Z,27.00
2018-08-23T07:45:18.471Z,27.10
2018-08-23T07:47:50.276Z,27.10
2018-08-23T07:50:19.784Z,27.00
2018-08-23T07:52:51.203Z,27.00
2018-08-23T07:55:20.490Z,27.00
2018-08-23T07:57:49.891Z,27.10
2018-08-23T08:00:38.423Z,27.30
2018-08-23T08:03:08.492Z,27.30
2018-08-23T08:05:39.837Z,27.40
2018-08-23T08:08:10.027Z,27.50
2018-08-23T08:10:40.596Z,27.60
2018-08-23T08:13:10.609Z,27.60
2018-08-23T08:15:39.975Z,27.80
2018-08-23T08:18:24.839Z,27.90
2018-08-23T08:21:03.825Z,27.90
2018-08-23T08:23:33.838Z,27.70
2018-08-23T08:26:03.984Z,27.70
2018-08-23T08:28:33.429Z,27.70
2018-08-23T08:31:02.928Z,27.80
2018-08-23T08:33:35.183Z,27.80
2018-08-23T08:36:05.535Z,27.80
2018-08-23T08:38:35.580Z,27.80
2018-08-23T08:41:04.944Z,27.70
2018-08-23T08:43:34.366Z,27.90
2018-08-23T08:46:03.717Z,28.10
2018-08-23T08:48:36.771Z,28.40
2018-08-23T08:51:24.185Z,28.50
2018-08-23T08:53:54.893Z,28.60
2018-08-23T08:56:28.448Z,28.60
2018-08-23T08:58:57.879Z,28.70
2018-08-23T09:01:27.224Z,28.60
2018-08-23T09:03:56.569Z,28.80
2018-08-23T09:06:31.036Z,28.90
2018-08-23T09:09:04.585Z,29.20
2018-08-23T09:11:33.961Z,29.30
2018-08-23T09:14:03.211Z,29.60
2018-08-23T09:16:32.436Z,29.70
2018-08-23T09:19:03.381Z,29.90
2018-08-23T09:21:33.147Z,29.80
2018-08-23T09:24:37.351Z,29.80
2018-08-23T09:27:17.261Z,29.60
2018-08-23T09:29:47.253Z,29.90
2018-08-23T09:32:21.808Z,29.80
2018-08-23T09:34:55.301Z,29.90
2018-08-23T09:37:25.259Z,29.90
2018-08-23T09:39:54.620Z,30.00
2018-08-23T09:42:23.996Z,30.20
2018-08-23T09:45:03.986Z,30.40
2018-08-23T09:47:33.355Z,30.50
2018-08-23T09:50:02.786Z,30.40
2018-08-23T09:52:33.761Z,30.40
2018-08-23T09:55:03.225Z,30.40
2018-08-23T09:57:32.885Z,30.50
2018-08-23T10:00:02.648Z,30.50
2018-08-23T10:02:37.144Z,30.50
2018-08-23T10:05:09.292Z,30.40
2018-08-23T10:07:43.931Z,30.40
2018-08-23T10:10:18.316Z,30.30
2018-08-23T10:12:52.877Z,30.40
2018-08-23T10:15:27.310Z,30.30
2018-08-23T10:18:01.767Z,30.10
2018-08-23T10:20:36.286Z,29.80
2018-08-23T10:23:10.822Z,29.50
2018-08-23T10:25:47.103Z,29.50
2018-08-23T10:28:17.851Z,29.40
2018-08-23T10:30:47.859Z,29.30
2018-08-23T10:33:17.952Z,29.30
2018-08-23T10:36:02.039Z,29.40
2018-08-23T10:38:31.551Z,29.50
2018-08-23T10:41:05.055Z,29.70
2018-08-23T10:43:39.353Z,29.90
2018-08-23T10:46:08.972Z,30.20
2018-08-23T10:48:38.789Z,30.10
2018-08-23T10:51:08.643Z,30.10
2018-08-23T10:53:38.691Z,29.90
2018-08-23T10:56:08.252Z,29.80
2018-08-23T10:58:38.225Z,29.50
2018-08-23T11:01:08.474Z,29.20
2018-08-23T11:03:37.974Z,29.00
2018-08-23T11:06:07.871Z,29.00
2018-08-23T11:08:41.436Z,29.00
2018-08-23T11:11:16.531Z,29.10
2018-08-23T11:13:46.749Z,29.20
2018-08-23T11:16:22.885Z,29.20
2018-08-23T11:19:56.204Z,28.80
2018-08-23T11:22:41.272Z,28.60
2018-08-23T11:25:18.830Z,28.40
2018-08-23T11:27:49.578Z,28.60
2018-08-23T11:30:22.592Z,28.80
2018-08-23T11:32:55.124Z,29.10
2018-08-23T11:35:26.814Z,29.30
2018-08-23T11:37:56.547Z,29.50
2018-08-23T11:40:27.140Z,29.80
2018-08-23T11:42:56.855Z,29.90
2018-08-23T11:45:26.424Z,30.00
2018-08-23T11:47:58.503Z,29.90
2018-08-23T11:50:29.189Z,29.60
2018-08-23T11:53:08.327Z,29.50
2018-08-23T11:55:48.565Z,29.50
2018-08-23T11:58:18.316Z,29.30
2018-08-23T12:00:54.701Z,29.20
2018-08-23T12:03:24.706Z,29.30
2018-08-23T12:05:55.134Z,29.50
2018-08-23T12:08:25.303Z,29.50
2018-08-23T12:10:57.925Z,29.60
2018-08-23T12:13:27.952Z,29.70
2018-08-23T12:15:57.665Z,29.60
2018-08-23T12:18:33.084Z,29.60
2018-08-23T12:21:02.525Z,29.70
2018-08-23T12:23:32.326Z,29.70
2018-08-23T12:26:01.807Z,29.80
2018-08-23T12:28:36.949Z,29.80
2018-08-23T12:31:13.255Z,29.70
2018-08-23T12:33:46.420Z,29.60
2018-08-23T12:36:23.221Z,29.70
2018-08-23T12:38:57.873Z,29.60
2018-08-23T12:41:32.777Z,29.60
2018-08-23T12:44:03.790Z,29.50
2018-08-23T12:46:34.877Z,29.60
2018-08-23T12:49:07.283Z,29.80
2018-08-23T12:51:40.561Z,29.90
2018-08-23T12:54:10.253Z,29.90
2018-08-23T12:56:40.068Z,29.90
2018-08-23T12:59:13.141Z,30.00
2018-08-23T13:01:42.952Z,29.90
2018-08-23T13:04:20.426Z,29.90
2018-08-23T13:07:02.529Z,29.90
2018-08-23T13:09:33.130Z,29.90
2018-08-23T13:12:03.422Z,30.10
2018-08-23T13:14:33.077Z,30.10
2018-08-23T13:17:02.625Z,30.10
2018-08-23T13:19:32.437Z,30.10
2018-08-23T13:27:35.596Z,30.20
2018-08-23T13:30:13.370Z,30.20
2018-08-23T13:32:43.261Z,29.70
2018-08-23T13:35:13.094Z,29.50
2018-08-23T13:37:42.611Z,29.30
2018-08-23T13:40:19.429Z,29.40
2018-08-23T13:42:49.475Z,29.30
2018-08-23T13:45:34.933Z,29.20
2018-08-23T13:48:09.479Z,29.20
2018-08-23T13:50:40.459Z,29.20
2018-08-23T13:53:10.005Z,29.30
2018-08-23T13:55:42.541Z,29.20
2018-08-23T14:01:51.312Z,29.00
2018-08-23T14:04:20.743Z,28.90
2018-08-23T14:07:16.861Z,28.80
2018-08-23T14:09:46.278Z,28.70
2018-08-23T14:12:17.066Z,28.70
2018-08-23T14:14:48.252Z,28.80
2018-08-23T14:23:22.774Z,28.80
2018-08-23T14:25:52.463Z,28.90
2018-08-23T14:28:22.580Z,28.90
2018-08-23T14:32:58.848Z,29.00
2018-08-23T14:35:28.231Z,29.00
2018-08-23T14:37:57.772Z,28.90
2018-08-23T14:40:27.116Z,28.80
2018-08-23T14:42:58.416Z,28.70
2018-08-23T14:45:33.326Z,28.60
2018-08-23T14:48:08.930Z,28.50
2018-08-23T14:50:48.839Z,28.40
2018-08-23T14:53:25.401Z,28.30
2018-08-23T14:55:59.764Z,28.20
2018-08-23T14:58:29.689Z,28.20
2018-08-23T15:01:04.842Z,28.10
2018-08-23T15:03:38.422Z,28.10
2018-08-23T15:06:23.208Z,28.00
2018-08-23T15:09:02.940Z,27.90
2018-08-23T15:11:32.534Z,27.80
2018-08-23T15:14:01.912Z,27.80
2018-08-23T15:16:31.223Z,27.70
2018-08-23T15:19:00.731Z,27.60
2018-08-23T15:21:30.125Z,27.10
2018-08-23T15:23:59.543Z,26.80
2018-08-23T15:26:29.690Z,26.30
2018-08-23T15:28:58.979Z,26.00
2018-08-23T15:31:28.430Z,25.50
2018-08-23T15:33:57.679Z,24.80
2018-08-23T15:36:26.926Z,24.10
2018-08-23T15:38:56.332Z,23.60
2018-08-23T15:41:25.671Z,23.30
2018-08-23T15:43:55.094Z,22.80
2018-08-23T15:46:29.367Z,22.40
2018-08-23T15:48:58.739Z,22.10
2018-08-23T15:51:27.985Z,21.90
2018-08-23T15:53:57.218Z,21.80
2018-08-23T15:56:26.429Z,21.80
2018-08-23T15:58:55.818Z,21.80
2018-08-23T16:01:25.098Z,21.70
2018-08-23T16:03:54.337Z,21.60
2018-08-23T16:06:23.594Z,21.60
2018-08-23T16:08:53.509Z,21.60
2018-08-23T16:11:23.975Z,21.60
2018-08-23T16:13:53.901Z,21.60
2018-08-23T16:16:28.472Z,21.70
2018-08-23T16:19:03.565Z,21.70
2018-08-23T16:21:38.900Z,21.80
2018-08-23T16:24:09.775Z,21.80
2018-08-23T16:26:44.158Z,21.90
2018-08-23T16:29:13.405Z,22.00
2018-08-23T16:31:42.944Z,22.10
2018-08-23T16:34:12.491Z,22.30
2018-08-23T16:36:42.764Z,22.40
2018-08-23T16:39:12.005Z,22.60
2018-08-23T16:41:42.027Z,22.70
2018-08-23T16:44:11.257Z,22.80
2018-08-23T16:46:40.474Z,23.00
2018-08-23T16:49:09.727Z,23.10
2018-08-23T16:51:38.915Z,23.10
2018-08-23T16:54:08.260Z,23.20
2018-08-23T16:56:37.466Z,23.30
2018-08-23T16:59:06.759Z,23.50
2018-08-23T17:01:35.953Z,23.50
2018-08-23T17:04:05.240Z,23.60
2018-08-23T17:06:34.537Z,23.70
2018-08-23T17:09:07.345Z,23.80
2018-08-23T17:11:39.535Z,23.80
2018-08-23T17:14:09.207Z,23.80
2018-08-23T17:16:43.652Z,23.80
2018-08-23T17:19:13.277Z,23.80
2018-08-23T17:21:43.318Z,23.90
2018-08-23T17:24:13.103Z,23.80
2018-08-23T17:26:42.915Z,23.80
2018-08-23T17:29:12.266Z,23.80
2018-08-23T17:31:41.637Z,23.80
2018-08-23T17:34:11.375Z,23.80
2018-08-23T17:36:41.081Z,23.80
2018-08-23T17:39:10.552Z,23.90
2018-08-23T17:41:39.824Z,24.00
2018-08-23T17:44:09.356Z,24.00
2018-08-23T17:46:38.739Z,24.10
2018-08-23T17:49:08.014Z,24.00
2018-08-23T17:51:37.310Z,23.90
2018-08-23T17:54:07.080Z,23.80
2018-08-23T17:56:36.626Z,23.70
2018-08-23T17:59:06.591Z,23.60
2018-08-23T18:01:36.297Z,23.50
2018-08-23T18:04:06.366Z,23.30
2018-08-23T18:06:36.283Z,23.30
2018-08-23T18:09:09.223Z,23.10
2018-08-23T18:11:39.451Z,23.00
2018-08-23T18:14:09.428Z,23.00
2018-08-23T18:16:44.556Z,23.00
2018-08-23T18:19:14.666Z,23.00
2018-08-23T18:21:44.844Z,23.00
2018-08-23T18:24:14.473Z,23.00
2018-08-23T18:26:43.737Z,22.90
2018-08-23T18:29:13.173Z,22.90
2018-08-23T18:31:43.737Z,22.90
2018-08-23T18:34:13.047Z,22.80
2018-08-23T18:36:42.492Z,22.80
2018-08-23T18:39:12.805Z,22.70
2018-08-23T18:41:43.141Z,22.70
2018-08-23T18:44:12.507Z,22.60
2018-08-23T18:46:42.734Z,22.60
2018-08-23T18:49:13.049Z,22.60
2018-08-23T18:51:42.979Z,22.50
2018-08-23T18:54:12.716Z,22.50
2018-08-23T18:56:42.329Z,22.50
2018-08-23T18:59:12.421Z,22.50
2018-08-23T19:01:42.976Z,22.60
2018-08-23T19:04:12.826Z,22.60
2018-08-23T19:06:42.489Z,22.60
2018-08-23T19:09:14.028Z,22.50
2018-08-23T19:11:45.128Z,22.30
2018-08-23T19:14:15.713Z,22.10
2018-08-23T19:16:50.872Z,22.00
2018-08-23T19:19:21.071Z,21.80
2018-08-23T19:21:51.122Z,21.70
2018-08-23T19:24:21.223Z,21.60
2018-08-23T19:26:51.374Z,21.60
2018-08-23T19:29:22.055Z,21.50
2018-08-23T19:31:52.358Z,21.50
2018-08-23T19:34:22.019Z,21.40
2018-08-23T19:36:52.151Z,21.40
2018-08-23T19:39:22.234Z,21.40
2018-08-23T19:41:51.750Z,21.40
2018-08-23T19:44:21.586Z,21.40
2018-08-23T19:46:58.062Z,21.40
2018-08-23T19:49:32.540Z,21.30
2018-08-23T19:52:02.135Z,21.40
2018-08-23T19:54:31.528Z,21.40
2018-08-23T19:57:01.415Z,21.40
2018-08-23T19:59:30.987Z,21.40
2018-08-23T20:02:00.387Z,21.30
2018-08-23T20:04:31.737Z,21.30
2018-08-23T20:07:01.644Z,21.20
2018-08-23T20:09:31.002Z,21.20
2018-08-23T20:12:00.363Z,21.10
2018-08-23T20:14:30.216Z,21.00
2018-08-23T20:17:00.190Z,20.90
2018-08-23T20:19:30.381Z,20.80
2018-08-23T20:22:00.055Z,20.70
2018-08-23T20:24:30.260Z,20.70
2018-08-23T20:26:59.964Z,20.60
2018-08-23T20:29:31.360Z,20.50
2018-08-23T20:32:01.338Z,20.40
2018-08-23T20:34:31.563Z,20.40
2018-08-23T20:37:01.506Z,20.30
2018-08-23T20:39:31.653Z,20.30
2018-08-23T20:42:01.251Z,20.30
2018-08-23T20:44:31.388Z,20.30
2018-08-23T20:47:01.538Z,20.30
2018-08-23T20:49:32.377Z,20.30
2018-08-23T20:52:02.363Z,20.30
2018-08-23T20:54:32.787Z,20.40
2018-08-23T20:57:03.101Z,20.40
2018-08-23T20:59:32.958Z,20.40
2018-08-23T21:02:03.516Z,20.40
2018-08-23T21:04:33.607Z,20.40
2018-08-23T21:07:03.703Z,20.40
2018-08-23T21:09:33.655Z,20.40
2018-08-23T21:12:03.536Z,20.30
2018-08-23T21:14:33.459Z,20.30
2018-08-23T21:17:03.260Z,20.30
2018-08-23T21:19:33.166Z,20.30
2018-08-23T21:22:03.192Z,20.30
2018-08-23T21:24:33.008Z,20.30
2018-08-23T21:27:03.286Z,20.30
2018-08-23T21:29:32.949Z,20.20
2018-08-23T21:32:02.506Z,20.20
2018-08-23T21:34:31.882Z,20.20
2018-08-23T21:37:01.319Z,20.20
2018-08-23T21:39:30.765Z,20.20
2018-08-23T21:42:00.199Z,20.10
2018-08-23T21:44:29.502Z,20.10
2018-08-23T21:46:58.869Z,20.10
2018-08-23T21:49:28.205Z,20.00
2018-08-23T21:51:57.594Z,20.00
2018-08-23T21:54:26.875Z,19.90
2018-08-23T21:56:56.204Z,19.90
2018-08-23T21:59:25.494Z,19.80
2018-08-23T22:01:59.946Z,19.80
2018-08-23T22:04:29.364Z,19.70
2018-08-23T22:06:58.727Z,19.80
2018-08-23T22:09:27.992Z,19.70
2018-08-23T22:11:57.779Z,19.70
2018-08-23T22:14:27.053Z,19.70
2018-08-23T22:16:56.342Z,19.70
2018-08-23T22:19:25.654Z,19.60
2018-08-23T22:21:54.971Z,19.60
2018-08-23T22:24:24.298Z,19.50
2018-08-23T22:26:53.597Z,19.50
2018-08-23T22:29:22.924Z,19.40
2018-08-23T22:31:52.230Z,19.30
2018-08-23T22:34:21.527Z,19.20
2018-08-23T22:36:50.921Z,19.20
2018-08-23T22:39:20.195Z,19.10
2018-08-23T22:41:49.784Z,19.10
2018-08-23T22:44:19.082Z,19.00
2018-08-23T22:46:48.391Z,18.90
2018-08-23T22:49:17.675Z,18.90
2018-08-23T22:51:46.994Z,18.80
2018-08-23T22:54:16.307Z,18.80
2018-08-23T22:56:45.851Z,18.80
2018-08-23T22:59:15.112Z,18.80
2018-08-23T23:01:44.452Z,18.70
2018-08-23T23:04:18.969Z,18.70
2018-08-23T23:06:48.300Z,18.70
2018-08-23T23:09:17.571Z,18.70
2018-08-23T23:11:46.944Z,18.60
2018-08-23T23:14:16.299Z,18.60
2018-08-23T23:16:45.704Z,18.60
2018-08-23T23:19:15.038Z,18.60
2018-08-23T23:21:44.365Z,18.60
2018-08-23T23:24:18.763Z,18.60
2018-08-23T23:26:48.097Z,18.60
2018-08-23T23:29:17.410Z,18.60
2018-08-23T23:31:46.689Z,18.60
2018-08-23T23:34:16.207Z,18.60
2018-08-23T23:36:45.475Z,18.60
2018-08-23T23:39:14.819Z,18.60
2018-08-23T23:41:44.137Z,18.70
2018-08-23T23:44:13.515Z,18.70
2018-08-23T23:46:42.876Z,18.80
2018-08-23T23:49:12.223Z,18.90
2018-08-23T23:51:41.862Z,19.00
2018-08-23T23:54:11.186Z,19.00
2018-08-23T23:56:40.429Z,19.10
2018-08-23T23:59:09.741Z,19.10
